Time;durP1;ratioP1;P1;durP2;ratioP2;P2;SDS_P1;SDS_P2;PMS_P1;PMS_P2;Temp;Humidity;BMP_temperature;BMP_pressure;BME280_temperature;BME280_humidity;BME280_pressure;Samples;Min_cycle;Max_cycle;Signal;HPM_P1;HPM_P2
2024/01/06 02:39:38;;;;;;;1999.90;999.90;;;;;;;;;;6069273;23;21059;-71
2024/01/06 02:42:23;;;;;;;1999.90;999.90;;;;;;;;;;4938626;29;20214;-71
2024/01/06 02:45:09;;;;;;;1999.90;999.90;;;;;;;;;;4944978;29;20755;-71
2024/01/06 02:47:54;;;;;;;1999.90;999.90;;;;;;;;;;4943631;29;20754;-71
2024/01/06 02:50:39;;;;;;;1999.90;999.90;;;;;;;;;;4935699;29;20305;-70
2024/01/06 02:53:24;;;;;;;1999.90;999.90;;;;;;;;;;4929678;29;20611;-70
2024/01/06 02:56:12;;;;;;;1999.90;999.90;;;;;;;;;;4951248;29;20696;-70
2024/01/06 02:58:57;;;;;;;1999.90;999.90;;;;;;;;;;4943221;29;20250;-70
2024/01/06 03:01:41;;;;;;;1999.90;999.90;;;;;;;;;;4943218;29;20235;-70
2024/01/06 03:04:26;;;;;;;1999.90;999.90;;;;;;;;;;4927578;29;20698;-71
2024/01/06 03:07:12;;;;;;;1999.90;999.90;;;;;;;;;;4936899;29;20349;-72
2024/01/06 03:09:57;;;;;;;1999.90;999.90;;;;;;;;;;4946433;28;20233;-71
2024/01/06 03:12:43;;;;;;;1999.90;999.90;;;;;;;;;;4935291;29;20312;-71
2024/01/06 03:15:28;;;;;;;1999.90;999.90;;;;;;;;;;4935452;29;20212;-71
2024/01/06 03:18:13;;;;;;;1999.90;999.90;;;;;;;;;;4934966;29;20594;-70
2024/01/06 03:20:57;;;;;;;1999.90;999.90;;;;;;;;;;4938348;29;20316;-71
2024/01/06 03:23:42;;;;;;;1999.90;999.90;;;;;;;;;;4934501;29;20414;-72
2024/01/06 03:26:27;;;;;;;1999.90;999.90;;;;;;;;;;4942945;29;20586;-72
2024/01/06 03:29:13;;;;;;;1999.90;999.90;;;;;;;;;;4936402;29;20730;-69
2024/01/06 03:31:59;;;;;;;1999.90;999.90;;;;;;;;;;4938188;29;20222;-69
2024/01/06 03:34:43;;;;;;;1999.90;999.90;;;;;;;;;;4934708;29;20206;-69
2024/01/06 03:37:28;;;;;;;1999.90;999.90;;;;;;;;;;4932674;29;20585;-70
2024/01/06 03:40:13;;;;;;;1999.90;999.90;;;;;;;;;;4934575;29;20241;-70
2024/01/06 03:42:58;;;;;;;1999.90;999.90;;;;;;;;;;4945839;29;20277;-70
2024/01/06 03:45:45;;;;;;;1999.90;999.90;;;;;;;;;;4928964;29;20219;-67
2024/01/06 03:48:29;;;;;;;1999.90;999.90;;;;;;;;;;4935146;29;20214;-69
2024/01/06 03:51:14;;;;;;;1999.90;999.90;;;;;;;;;;4934371;29;20763;-69
2024/01/06 03:53:59;;;;;;;1999.90;999.90;;;;;;;;;;4942071;29;20617;-70
2024/01/06 03:56:44;;;;;;;1999.90;999.90;;;;;;;;;;4934532;29;20701;-69
2024/01/06 03:59:29;;;;;;;1999.90;999.90;;;;;;;;;;4942471;29;20221;-70
2024/01/06 04:02:15;;;;;;;1999.90;999.90;;;;;;;;;;4934180;29;20218;-68
2024/01/06 04:05:00;;;;;;;1999.90;999.90;;;;;;;;;;4934350;29;20214;-69
2024/01/06 04:07:45;;;;;;;1999.90;999.90;;;;;;;;;;4942438;29;20331;-69
2024/01/06 04:10:30;;;;;;;1999.90;999.90;;;;;;;;;;4934329;29;20730;-68
2024/01/06 04:13:16;;;;;;;1999.90;999.90;;;;;;;;;;4934135;29;20232;-70
2024/01/06 04:16:01;;;;;;;1999.90;999.90;;;;;;;;;;4942138;29;20273;-69
2024/01/06 04:18:49;;;;;;;1999.90;999.90;;;;;;;;;;4936889;29;20218;-70
2024/01/06 04:21:34;;;;;;;1999.90;999.90;;;;;;;;;;4932359;29;20238;-69
2024/01/06 04:24:19;;;;;;;1999.90;999.90;;;;;;;;;;4934002;29;20253;-70
2024/01/06 04:27:04;;;;;;;1999.90;999.90;;;;;;;;;;4941897;29;20247;-70
2024/01/06 04:29:52;;;;;;;1999.90;999.90;;;;;;;;;;4934408;28;20236;-70
2024/01/06 04:32:38;;;;;;;1999.90;999.90;;;;;;;;;;4936791;29;20758;-70
2024/01/06 04:35:25;;;;;;;1999.90;999.90;;;;;;;;;;4947764;29;20344;-71
2024/01/06 04:38:10;;;;;;;1999.90;999.90;;;;;;;;;;4939286;29;20209;-70
2024/01/06 04:40:55;;;;;;;1999.90;999.90;;;;;;;;;;4948789;29;20316;-70
2024/01/06 04:43:40;;;;;;;1999.90;999.90;;;;;;;;;;4950641;29;20196;-71
2024/01/06 04:46:24;;;;;;;1999.90;999.90;;;;;;;;;;4947604;29;20217;-71
2024/01/06 04:49:11;;;;;;;1999.90;999.90;;;;;;;;;;4950204;29;20215;-70
2024/01/06 04:51:57;;;;;;;1999.90;999.90;;;;;;;;;;4952114;29;20213;-69
2024/01/06 04:54:42;;;;;;;1999.90;999.90;;;;;;;;;;4944182;29;20446;-70
2024/01/06 04:57:27;;;;;;;1999.90;999.90;;;;;;;;;;4955155;29;20286;-69
2024/01/06 05:00:13;;;;;;;1999.90;999.90;;;;;;;;;;4946858;28;20257;-72
2024/01/06 05:02:58;;;;;;;1999.90;999.90;;;;;;;;;;4946805;29;20338;-69
2024/01/06 05:05:43;;;;;;;1999.90;999.90;;;;;;;;;;4936954;29;20209;-70
2024/01/06 05:08:30;;;;;;;1999.90;999.90;;;;;;;;;;4941697;29;20288;-70
2024/01/06 05:11:15;;;;;;;1999.90;999.90;;;;;;;;;;4948500;29;20240;-70
2024/01/06 05:14:00;;;;;;;1999.90;999.90;;;;;;;;;;4947745;29;20312;-71
2024/01/06 05:16:45;;;;;;;1999.90;999.90;;;;;;;;;;4945225;29;20209;-71
2024/01/06 05:19:30;;;;;;;1999.90;999.90;;;;;;;;;;4943588;29;20462;-72
2024/01/06 05:22:15;;;;;;;1999.90;999.90;;;;;;;;;;4936117;29;20586;-72
2024/01/06 05:25:01;;;;;;;1999.90;999.90;;;;;;;;;;4945603;29;20206;-72
2024/01/06 05:27:48;;;;;;;1999.90;999.90;;;;;;;;;;4939447;29;20209;-72
2024/01/06 05:30:33;;;;;;;1999.90;999.90;;;;;;;;;;4947504;29;20362;-71
2024/01/06 05:33:18;;;;;;;1999.90;999.90;;;;;;;;;;4948609;29;20320;-72
2024/01/06 05:36:03;;;;;;;1999.90;999.90;;;;;;;;;;4946100;29;20216;-69
2024/01/06 05:38:48;;;;;;;1999.90;999.90;;;;;;;;;;4932703;29;20217;-72
2024/01/06 05:41:39;;;;;;;1999.90;999.90;;;;;;;;;;4947752;29;20240;-71
2024/01/06 05:44:24;;;;;;;1999.90;999.90;;;;;;;;;;4943026;29;20670;-71
2024/01/06 05:47:09;;;;;;;1999.90;999.90;;;;;;;;;;4952060;29;20216;-71
2024/01/06 05:49:54;;;;;;;1999.90;999.90;;;;;;;;;;4944319;29;20233;-71
2024/01/06 05:52:39;;;;;;;1999.90;999.90;;;;;;;;;;4921020;29;20221;-71
2024/01/06 05:55:24;;;;;;;1999.90;999.90;;;;;;;;;;4948930;29;20216;-71
2024/01/06 05:58:10;;;;;;;1999.90;999.90;;;;;;;;;;4938325;29;20220;-71
2024/01/06 06:00:55;;;;;;;1999.90;999.90;;;;;;;;;;4941582;28;20235;-71
2024/01/06 06:03:40;;;;;;;1999.90;999.90;;;;;;;;;;4918871;29;20338;-70
2024/01/06 06:06:25;;;;;;;1999.90;999.90;;;;;;;;;;4917359;29;20226;-71
2024/01/06 06:09:10;;;;;;;1999.90;999.90;;;;;;;;;;4938063;29;20605;-71
2024/01/06 06:11:55;;;;;;;1999.90;999.90;;;;;;;;;;4938483;29;20209;-71
2024/01/06 06:14:42;;;;;;;1999.90;999.90;;;;;;;;;;4936899;29;20228;-70
2024/01/06 06:17:27;;;;;;;1999.90;999.90;;;;;;;;;;4945353;29;20245;-71
2024/01/06 06:20:12;;;;;;;1999.90;999.90;;;;;;;;;;4940051;29;20365;-71
2024/01/06 06:22:56;;;;;;;1999.90;999.90;;;;;;;;;;4920424;29;20462;-71
2024/01/06 06:25:42;;;;;;;1999.90;999.90;;;;;;;;;;4942223;29;20205;-70
2024/01/06 06:28:27;;;;;;;1999.90;999.90;;;;;;;;;;4943963;29;20688;-72
2024/01/06 06:31:13;;;;;;;1999.90;999.90;;;;;;;;;;4946940;29;20229;-70
2024/01/06 06:33:58;;;;;;;1999.90;999.90;;;;;;;;;;4945718;29;20224;-71
2024/01/06 06:36:43;;;;;;;1999.90;999.90;;;;;;;;;;4939398;29;20212;-71
2024/01/06 06:39:30;;;;;;;1999.90;999.90;;;;;;;;;;4944528;29;20216;-71
2024/01/06 06:42:15;;;;;;;1999.90;999.90;;;;;;;;;;4945661;29;20329;-71
2024/01/06 06:45:00;;;;;;;1999.90;999.90;;;;;;;;;;4935266;29;20205;-71
2024/01/06 06:47:46;;;;;;;1999.90;999.90;;;;;;;;;;4935574;29;20209;-71
2024/01/06 06:50:31;;;;;;;1999.90;999.90;;;;;;;;;;4935314;29;20237;-71
2024/01/06 06:53:16;;;;;;;1999.90;999.90;;;;;;;;;;4935221;29;20318;-71
2024/01/06 06:56:02;;;;;;;1999.90;999.90;;;;;;;;;;4934874;29;20209;-71
2024/01/06 06:58:47;;;;;;;1999.90;999.90;;;;;;;;;;4935279;29;20213;-71
2024/01/06 07:01:32;;;;;;;1999.90;999.90;;;;;;;;;;4935108;29;20738;-71
2024/01/06 07:04:18;;;;;;;1999.90;999.90;;;;;;;;;;4942980;29;20208;-71
2024/01/06 07:07:03;;;;;;;1999.90;999.90;;;;;;;;;;4941299;29;20754;-70
2024/01/06 07:09:48;;;;;;;1999.90;999.90;;;;;;;;;;4927064;29;20777;-70
2024/01/06 07:12:33;;;;;;;1999.90;999.90;;;;;;;;;;4942903;29;20236;-69
2024/01/06 07:15:18;;;;;;;1999.90;999.90;;;;;;;;;;4934749;29;20854;-70
2024/01/06 07:18:03;;;;;;;1999.90;999.90;;;;;;;;;;4937702;29;20225;-70
2024/01/06 07:20:49;;;;;;;1999.90;999.90;;;;;;;;;;4927400;29;20349;-71
2024/01/06 07:23:35;;;;;;;1999.90;999.90;;;;;;;;;;4942896;29;20295;-70
2024/01/06 07:26:20;;;;;;;1999.90;999.90;;;;;;;;;;4945348;29;20637;-70
2024/01/06 07:29:05;;;;;;;1999.90;999.90;;;;;;;;;;4953974;29;20209;-71
2024/01/06 07:31:50;;;;;;;1999.90;999.90;;;;;;;;;;4940021;29;20256;-70
2024/01/06 07:34:35;;;;;;;1999.90;999.90;;;;;;;;;;4934486;29;20725;-70
2024/01/06 07:37:21;;;;;;;1999.90;999.90;;;;;;;;;;4941230;29;20216;-70
2024/01/06 07:40:06;;;;;;;1999.90;999.90;;;;;;;;;;4928417;29;20241;-70
2024/01/06 07:42:51;;;;;;;1999.90;999.90;;;;;;;;;;4931070;29;20258;-71
2024/01/06 07:45:36;;;;;;;1999.90;999.90;;;;;;;;;;4932960;29;20285;-71
2024/01/06 07:48:21;;;;;;;1999.90;999.90;;;;;;;;;;4942402;29;20583;-70
2024/01/06 07:51:06;;;;;;;1999.90;999.90;;;;;;;;;;4931602;29;20418;-70
2024/01/06 07:53:52;;;;;;;1999.90;999.90;;;;;;;;;;4932792;29;20328;-70
2024/01/06 07:56:37;;;;;;;1999.90;999.90;;;;;;;;;;4934478;29;20289;-71
2024/01/06 07:59:23;;;;;;;1999.90;999.90;;;;;;;;;;4941176;28;20223;-70
2024/01/06 08:02:08;;;;;;;1999.90;999.90;;;;;;;;;;4938295;29;20337;-71
2024/01/06 08:04:55;;;;;;;1999.90;999.90;;;;;;;;;;4944233;28;20268;-70
2024/01/06 08:07:40;;;;;;;1999.90;999.90;;;;;;;;;;4944045;29;20405;-70
2024/01/06 08:10:26;;;;;;;1999.90;999.90;;;;;;;;;;4944714;29;20360;-71
2024/01/06 08:13:11;;;;;;;1999.90;999.90;;;;;;;;;;4947760;29;20268;-70
2024/01/06 08:15:56;;;;;;;1999.90;999.90;;;;;;;;;;4939956;29;20232;-71
2024/01/06 08:18:41;;;;;;;1999.90;999.90;;;;;;;;;;4940693;29;20811;-71
2024/01/06 08:21:26;;;;;;;1999.90;999.90;;;;;;;;;;4945120;29;20235;-70
2024/01/06 08:24:11;;;;;;;1999.90;999.90;;;;;;;;;;4936130;29;20228;-70
2024/01/06 08:26:58;;;;;;;1999.90;999.90;;;;;;;;;;4943293;29;20210;-72
2024/01/06 08:29:43;;;;;;;1999.90;999.90;;;;;;;;;;4934300;29;20609;-70
2024/01/06 08:32:28;;;;;;;1999.90;999.90;;;;;;;;;;4945997;29;20757;-70
2024/01/06 08:35:16;;;;;;;1999.90;999.90;;;;;;;;;;4940219;29;20248;-70
2024/01/06 08:38:01;;;;;;;1999.90;999.90;;;;;;;;;;4947264;29;20959;-71
2024/01/06 08:40:47;;;;;;;1999.90;999.90;;;;;;;;;;4949142;28;20236;-71
2024/01/06 08:43:34;;;;;;;1999.90;999.90;;;;;;;;;;4946326;29;20218;-70
2024/01/06 08:46:19;;;;;;;1999.90;999.90;;;;;;;;;;4943578;29;20904;-70
2024/01/06 08:49:03;;;;;;;1999.90;999.90;;;;;;;;;;4935105;29;20236;-70
2024/01/06 08:51:48;;;;;;;1999.90;999.90;;;;;;;;;;4938123;29;20212;-71
2024/01/06 08:54:34;;;;;;;1999.90;999.90;;;;;;;;;;4936043;29;20281;-70
2024/01/06 08:57:19;;;;;;;1999.90;999.90;;;;;;;;;;4940224;29;20341;-70
2024/01/06 09:00:10;;;;;;;1999.90;999.90;;;;;;;;;;4937588;29;20607;-71
2024/01/06 09:02:55;;;;;;;1999.90;999.90;;;;;;;;;;4937506;29;20295;-70
2024/01/06 09:05:40;;;;;;;1999.90;999.90;;;;;;;;;;4941948;29;20197;-70
2024/01/06 09:08:25;;;;;;;1999.90;999.90;;;;;;;;;;4936971;29;20273;-72
2024/01/06 09:11:10;;;;;;;1999.90;999.90;;;;;;;;;;4940652;29;20961;-71
2024/01/06 09:13:54;;;;;;;1999.90;999.90;;;;;;;;;;4950165;29;20233;-71
2024/01/06 09:16:41;;;;;;;1999.90;999.90;;;;;;;;;;4941829;29;20221;-71
2024/01/06 09:19:28;;;;;;;1999.90;999.90;;;;;;;;;;4941838;28;20205;-71
2024/01/06 09:22:13;;;;;;;1999.90;999.90;;;;;;;;;;4937967;29;20225;-70
2024/01/06 09:24:59;;;;;;;1999.90;999.90;;;;;;;;;;4935145;29;20210;-69
2024/01/06 09:27:44;;;;;;;1999.90;999.90;;;;;;;;;;4940501;29;20325;-71
2024/01/06 09:30:29;;;;;;;1999.90;999.90;;;;;;;;;;4935244;29;20370;-70
2024/01/06 09:33:17;;;;;;;1999.90;999.90;;;;;;;;;;4940847;29;20354;-70
2024/01/06 09:36:02;;;;;;;1999.90;999.90;;;;;;;;;;4934220;29;20231;-70
2024/01/06 09:38:47;;;;;;;1999.90;999.90;;;;;;;;;;4940350;29;20252;-70
2024/01/06 09:41:33;;;;;;;1999.90;999.90;;;;;;;;;;4940256;28;20247;-71
2024/01/06 09:44:18;;;;;;;1999.90;999.90;;;;;;;;;;4943540;29;20217;-71
2024/01/06 09:47:03;;;;;;;1999.90;999.90;;;;;;;;;;4941190;29;20213;-70
2024/01/06 09:49:50;;;;;;;1999.90;999.90;;;;;;;;;;4939652;28;20706;-70
2024/01/06 09:52:39;;;;;;;1999.90;999.90;;;;;;;;;;4945744;29;20353;-71
2024/01/06 09:55:26;;;;;;;1999.90;999.90;;;;;;;;;;4936766;29;20341;-71
2024/01/06 09:58:11;;;;;;;1999.90;999.90;;;;;;;;;;4936696;29;20216;-71
2024/01/06 10:00:56;;;;;;;1999.90;999.90;;;;;;;;;;4938763;28;20228;-71
2024/01/06 10:03:41;;;;;;;1999.90;999.90;;;;;;;;;;4942653;29;20209;-71
2024/01/06 10:06:27;;;;;;;1999.90;999.90;;;;;;;;;;4939403;29;20310;-71
2024/01/06 10:09:13;;;;;;;1999.90;999.90;;;;;;;;;;4940774;29;20213;-71
2024/01/06 10:11:58;;;;;;;1999.90;999.90;;;;;;;;;;4944226;29;20592;-71
2024/01/06 10:14:44;;;;;;;1999.90;999.90;;;;;;;;;;4940768;29;20236;-71
2024/01/06 10:17:29;;;;;;;1999.90;999.90;;;;;;;;;;4941604;29;20216;-70
2024/01/06 10:20:15;;;;;;;1999.90;999.90;;;;;;;;;;4937283;29;20488;-71
2024/01/06 10:23:06;;;;;;;1999.90;999.90;;;;;;;;;;4937876;29;20225;-70
2024/01/06 10:25:52;;;;;;;1999.90;999.90;;;;;;;;;;4938511;29;20834;-69
2024/01/06 10:28:37;;;;;;;1999.90;999.90;;;;;;;;;;4944455;28;20209;-70
2024/01/06 10:31:22;;;;;;;1999.90;999.90;;;;;;;;;;4933675;29;20801;-71
2024/01/06 10:34:07;;;;;;;1999.90;999.90;;;;;;;;;;4939481;29;20338;-71
2024/01/06 10:36:52;;;;;;;1999.90;999.90;;;;;;;;;;4939886;29;20217;-70
2024/01/06 10:39:39;;;;;;;1999.90;999.90;;;;;;;;;;4944300;28;20213;-70
2024/01/06 10:42:24;;;;;;;1999.90;999.90;;;;;;;;;;4938011;29;20201;-71
2024/01/06 10:45:10;;;;;;;1999.90;999.90;;;;;;;;;;4939995;29;20671;-70
2024/01/06 10:47:55;;;;;;;1999.90;999.90;;;;;;;;;;4939503;29;20225;-71
2024/01/06 10:50:40;;;;;;;1999.90;999.90;;;;;;;;;;4934356;29;20236;-71
2024/01/06 10:53:26;;;;;;;1999.90;999.90;;;;;;;;;;4934066;29;20210;-71
2024/01/06 10:56:13;;;;;;;1999.90;999.90;;;;;;;;;;4940680;29;20554;-71
2024/01/06 10:58:58;;;;;;;1999.90;999.90;;;;;;;;;;4937913;29;20213;-70
2024/01/06 11:12:13;;;;;;;1999.90;999.90;;;;;;;;;;5125101;27;20571;-70
2024/01/06 11:14:59;;;;;;;1999.90;999.90;;;;;;;;;;5126959;27;20280;-69
2024/01/06 11:17:52;;;;;;;1999.90;999.90;;;;;;;;;;5124392;28;20284;-69
2024/01/06 11:20:38;;;;;;;1999.90;999.90;;;;;;;;;;5125704;28;20218;-70
2024/01/06 11:23:23;;;;;;;1999.90;999.90;;;;;;;;;;5126172;27;20248;-69
2024/01/06 11:26:07;;;;;;;1999.90;999.90;;;;;;;;;;5126095;28;20287;-69
2024/01/06 11:28:58;;;;;;;1999.90;999.90;;;;;;;;;;5124728;28;20252;-69
2024/01/06 11:31:43;;;;;;;1999.90;999.90;;;;;;;;;;5127259;27;20227;-68
2024/01/06 11:34:31;;;;;;;1999.90;999.90;;;;;;;;;;5123538;28;20272;-69
2024/01/06 11:37:18;;;;;;;1999.90;999.90;;;;;;;;;;5126679;28;20206;-69
2024/01/06 11:40:04;;;;;;;1999.90;999.90;;;;;;;;;;5124115;28;20238;-69
2024/01/06 11:42:49;;;;;;;1999.90;999.90;;;;;;;;;;5122305;28;20218;-69
2024/01/06 11:45:36;;;;;;;1999.90;999.90;;;;;;;;;;5122004;28;20395;-71
2024/01/06 11:48:23;;;;;;;1999.90;999.90;;;;;;;;;;5127016;28;20753;-70
2024/01/06 11:51:08;;;;;;;1999.90;999.90;;;;;;;;;;5121978;27;20255;-70
2024/01/06 11:53:53;;;;;;;1999.90;999.90;;;;;;;;;;5125223;27;20256;-68
2024/01/06 11:56:38;;;;;;;1999.90;999.90;;;;;;;;;;5127068;28;20215;-69
2024/01/06 11:59:23;;;;;;;1999.90;999.90;;;;;;;;;;5125378;28;20198;-68
2024/01/06 12:02:13;;;;;;;1999.90;999.90;;;;;;;;;;5118726;28;20246;-69
2024/01/06 12:04:58;;;;;;;1999.90;999.90;;;;;;;;;;5122290;27;20199;-70
2024/01/06 12:07:43;;;;;;;1999.90;999.90;;;;;;;;;;5126791;28;20396;-69
2024/01/06 12:10:29;;;;;;;1999.90;999.90;;;;;;;;;;5126096;28;20230;-69
2024/01/06 12:13:14;;;;;;;1999.90;999.90;;;;;;;;;;5112629;28;20215;-69
2024/01/06 12:16:00;;;;;;;1999.90;999.90;;;;;;;;;;5107941;28;20789;-69
2024/01/06 12:18:46;;;;;;;1999.90;999.90;;;;;;;;;;5109544;28;20471;-69
2024/01/06 12:21:36;;;;;;;1999.90;999.90;;;;;;;;;;5111330;28;20730;-68
2024/01/06 12:24:22;;;;;;;1999.90;999.90;;;;;;;;;;5109025;28;20276;-69
2024/01/06 12:27:08;;;;;;;1999.90;999.90;;;;;;;;;;5107070;28;20348;-69
2024/01/06 12:29:53;;;;;;;1999.90;999.90;;;;;;;;;;5107792;28;20723;-70
2024/01/06 12:32:38;;;;;;;1999.90;999.90;;;;;;;;;;5110265;28;20215;-69
2024/01/06 12:35:25;;;;;;;1999.90;999.90;;;;;;;;;;5108939;28;20202;-69
2024/01/06 12:38:10;;;;;;;1999.90;999.90;;;;;;;;;;5112532;28;20277;-69
2024/01/06 12:40:56;;;;;;;1999.90;999.90;;;;;;;;;;5112461;28;20215;-69
2024/01/06 12:43:41;;;;;;;1999.90;999.90;;;;;;;;;;5111958;28;20215;-68
2024/01/06 12:46:26;;;;;;;1999.90;999.90;;;;;;;;;;5105764;28;20273;-69
2024/01/06 12:49:11;;;;;;;1999.90;999.90;;;;;;;;;;5109539;28;20574;-69
2024/01/06 12:51:57;;;;;;;1999.90;999.90;;;;;;;;;;5112221;28;20305;-70
2024/01/06 12:54:42;;;;;;;1999.90;999.90;;;;;;;;;;5110063;28;20730;-69
2024/01/06 12:57:27;;;;;;;1999.90;999.90;;;;;;;;;;5111493;28;20211;-69
2024/01/06 13:00:13;;;;;;;1999.90;999.90;;;;;;;;;;5109315;28;20361;-71
2024/01/06 13:02:58;;;;;;;1999.90;999.90;;;;;;;;;;5111834;28;20698;-69
2024/01/06 13:05:43;;;;;;;1999.90;999.90;;;;;;;;;;5109817;28;20265;-70
2024/01/06 13:08:29;;;;;;;1999.90;999.90;;;;;;;;;;5111028;28;20408;-69
2024/01/06 13:11:14;;;;;;;1999.90;999.90;;;;;;;;;;5111514;28;20812;-70
2024/01/06 13:13:59;;;;;;;1999.90;999.90;;;;;;;;;;5109788;28;20322;-71
2024/01/06 13:16:44;;;;;;;1999.90;999.90;;;;;;;;;;5108126;28;20207;-70
2024/01/06 13:19:30;;;;;;;1999.90;999.90;;;;;;;;;;5111847;28;20207;-69
2024/01/06 13:22:16;;;;;;;1999.90;999.90;;;;;;;;;;5111105;28;20366;-70
2024/01/06 13:25:02;;;;;;;1999.90;999.90;;;;;;;;;;5108550;28;20211;-69
2024/01/06 13:27:47;;;;;;;1999.90;999.90;;;;;;;;;;5111310;28;20211;-68
2024/01/06 13:30:32;;;;;;;1999.90;999.90;;;;;;;;;;5110229;28;20222;-70
2024/01/06 13:33:17;;;;;;;1999.90;999.90;;;;;;;;;;5110443;28;20237;-68
2024/01/06 13:36:04;;;;;;;1999.90;999.90;;;;;;;;;;5100113;28;20219;-70
2024/01/06 13:38:49;;;;;;;1999.90;999.90;;;;;;;;;;5100220;28;20784;-70
2024/01/06 13:41:35;;;;;;;1999.90;999.90;;;;;;;;;;5108642;28;20676;-71
2024/01/06 13:44:22;;;;;;;1999.90;999.90;;;;;;;;;;5109512;28;20208;-69
2024/01/06 13:47:07;;;;;;;1999.90;999.90;;;;;;;;;;5109697;28;20336;-70
2024/01/06 13:49:54;;;;;;;1999.90;999.90;;;;;;;;;;5109972;28;20281;-70
2024/01/06 13:52:40;;;;;;;1999.90;999.90;;;;;;;;;;5103223;28;20730;-70
2024/01/06 13:55:24;;;;;;;1999.90;999.90;;;;;;;;;;5107793;28;20279;-70
2024/01/06 13:58:11;;;;;;;1999.90;999.90;;;;;;;;;;5111003;28;20210;-69
2024/01/06 14:00:56;;;;;;;1999.90;999.90;;;;;;;;;;5109736;28;20219;-69
2024/01/06 14:03:41;;;;;;;1999.90;999.90;;;;;;;;;;5104096;28;20218;-69
2024/01/06 14:06:29;;;;;;;1999.90;999.90;;;;;;;;;;5110930;28;20249;-70
2024/01/06 14:09:14;;;;;;;1999.90;999.90;;;;;;;;;;5108157;28;20284;-70
2024/01/06 14:11:59;;;;;;;1999.90;999.90;;;;;;;;;;5110246;28;20208;-69
2024/01/06 14:14:46;;;;;;;1999.90;999.90;;;;;;;;;;5107395;28;20715;-70
2024/01/06 14:17:31;;;;;;;1999.90;999.90;;;;;;;;;;5107456;28;20622;-70
2024/01/06 14:20:17;;;;;;;1999.90;999.90;;;;;;;;;;5105820;28;20235;-70
2024/01/06 14:23:02;;;;;;;1999.90;999.90;;;;;;;;;;5110572;28;20256;-70
2024/01/06 14:25:46;;;;;;;1999.90;999.90;;;;;;;;;;5109098;28;20285;-70
2024/01/06 14:28:31;;;;;;;1999.90;999.90;;;;;;;;;;5110021;28;20281;-70
2024/01/06 14:31:18;;;;;;;1999.90;999.90;;;;;;;;;;5107437;28;20238;-70
2024/01/06 14:34:03;;;;;;;1999.90;999.90;;;;;;;;;;5105126;28;20416;-69
2024/01/06 14:36:48;;;;;;;1999.90;999.90;;;;;;;;;;5108294;28;20210;-70
2024/01/06 14:39:34;;;;;;;1999.90;999.90;;;;;;;;;;5105757;28;20285;-70
2024/01/06 14:42:20;;;;;;;1999.90;999.90;;;;;;;;;;5107063;28;20211;-71
2024/01/06 14:45:06;;;;;;;1999.90;999.90;;;;;;;;;;5107012;28;20576;-69
2024/01/06 14:47:52;;;;;;;1999.90;999.90;;;;;;;;;;5106316;28;20214;-70
2024/01/06 14:50:37;;;;;;;1999.90;999.90;;;;;;;;;;5106055;28;20230;-71
2024/01/06 14:53:22;;;;;;;1999.90;999.90;;;;;;;;;;5106379;28;20818;-71
2024/01/06 14:56:07;;;;;;;1999.90;999.90;;;;;;;;;;5107228;28;20194;-70
2024/01/06 14:58:52;;;;;;;1999.90;999.90;;;;;;;;;;5107741;28;20210;-71
2024/01/06 15:01:37;;;;;;;1999.90;999.90;;;;;;;;;;5107746;28;20740;-70
2024/01/06 15:04:23;;;;;;;1999.90;999.90;;;;;;;;;;5107998;28;20400;-70
2024/01/06 15:07:08;;;;;;;1999.90;999.90;;;;;;;;;;5106899;28;20292;-70
2024/01/06 15:09:53;;;;;;;1999.90;999.90;;;;;;;;;;5109097;28;20352;-71
2024/01/06 15:12:38;;;;;;;1999.90;999.90;;;;;;;;;;5105576;28;20215;-70
2024/01/06 15:15:22;;;;;;;1999.90;999.90;;;;;;;;;;5108886;28;20210;-71
2024/01/06 15:18:08;;;;;;;1999.90;999.90;;;;;;;;;;5108463;28;20206;-70
2024/01/06 15:20:55;;;;;;;1999.90;999.90;;;;;;;;;;5106528;28;20368;-70
2024/01/06 15:23:40;;;;;;;1999.90;999.90;;;;;;;;;;5104925;28;20207;-69
2024/01/06 15:26:25;;;;;;;1999.90;999.90;;;;;;;;;;5104371;28;20291;-70
2024/01/06 15:29:10;;;;;;;1999.90;999.90;;;;;;;;;;5106035;28;20206;-70
2024/01/06 15:31:56;;;;;;;1999.90;999.90;;;;;;;;;;5106953;28;20210;-70
2024/01/06 15:34:42;;;;;;;1999.90;999.90;;;;;;;;;;5105865;28;20288;-70
2024/01/06 15:37:28;;;;;;;1999.90;999.90;;;;;;;;;;5104456;28;20206;-70
2024/01/06 15:40:13;;;;;;;1999.90;999.90;;;;;;;;;;5093391;28;20278;-70
2024/01/06 15:42:58;;;;;;;1999.90;999.90;;;;;;;;;;5104415;28;20227;-69
2024/01/06 15:45:43;;;;;;;1999.90;999.90;;;;;;;;;;5106414;28;20227;-69
2024/01/06 15:48:28;;;;;;;1999.90;999.90;;;;;;;;;;5101127;28;20207;-69
2024/01/06 15:51:12;;;;;;;1999.90;999.90;;;;;;;;;;5111785;28;20735;-69
2024/01/06 15:53:59;;;;;;;1999.90;999.90;;;;;;;;;;5099559;28;20200;-70
2024/01/06 15:56:44;;;;;;;1999.90;999.90;;;;;;;;;;5105506;28;20214;-70
2024/01/06 15:59:29;;;;;;;1999.90;999.90;;;;;;;;;;5106523;28;20211;-70
2024/01/06 16:02:14;;;;;;;1999.90;999.90;;;;;;;;;;5111166;28;20429;-69
2024/01/06 16:04:59;;;;;;;1999.90;999.90;;;;;;;;;;5109941;28;20207;-69
2024/01/06 16:07:44;;;;;;;1999.90;999.90;;;;;;;;;;5105442;28;20291;-70
2024/01/06 16:10:31;;;;;;;1999.90;999.90;;;;;;;;;;5105040;28;20238;-70
2024/01/06 16:13:16;;;;;;;1999.90;999.90;;;;;;;;;;5109135;28;20203;-68
2024/01/06 16:16:02;;;;;;;1999.90;999.90;;;;;;;;;;5108131;28;20211;-69
2024/01/06 16:18:47;;;;;;;1999.90;999.90;;;;;;;;;;5109531;28;20207;-69
2024/01/06 16:21:32;;;;;;;1999.90;999.90;;;;;;;;;;5110387;28;20231;-70
2024/01/06 16:24:18;;;;;;;1999.90;999.90;;;;;;;;;;5110308;28;20710;-70
2024/01/06 16:27:05;;;;;;;1999.90;999.90;;;;;;;;;;5110904;28;20580;-69
2024/01/06 16:29:50;;;;;;;1999.90;999.90;;;;;;;;;;5104986;28;20425;-70
2024/01/06 16:32:35;;;;;;;1999.90;999.90;;;;;;;;;;5108438;28;20691;-70
2024/01/06 16:35:20;;;;;;;1999.90;999.90;;;;;;;;;;5107206;28;20203;-69
2024/01/06 16:38:05;;;;;;;1999.90;999.90;;;;;;;;;;5112001;28;20227;-70
2024/01/06 16:40:50;;;;;;;1999.90;999.90;;;;;;;;;;5106855;28;20230;-69
2024/01/06 16:43:38;;;;;;;1999.90;999.90;;;;;;;;;;5107810;28;20211;-70
2024/01/06 16:46:23;;;;;;;1999.90;999.90;;;;;;;;;;5110788;28;20689;-70
2024/01/06 16:49:08;;;;;;;1999.90;999.90;;;;;;;;;;5110685;28;20254;-70
2024/01/06 16:51:53;;;;;;;1999.90;999.90;;;;;;;;;;5111295;28;20195;-69
2024/01/06 16:54:38;;;;;;;1999.90;999.90;;;;;;;;;;5109408;28;20812;-70
2024/01/06 16:57:22;;;;;;;1999.90;999.90;;;;;;;;;;5114382;28;20288;-70
2024/01/06 17:00:10;;;;;;;1999.90;999.90;;;;;;;;;;5111892;28;20243;-70
2024/01/06 17:02:55;;;;;;;1999.90;999.90;;;;;;;;;;5110507;28;20231;-70
2024/01/06 17:05:41;;;;;;;1999.90;999.90;;;;;;;;;;5108746;28;20253;-71
2024/01/06 17:08:25;;;;;;;1999.90;999.90;;;;;;;;;;5111639;28;20748;-71
2024/01/06 17:11:10;;;;;;;1999.90;999.90;;;;;;;;;;5109218;28;20304;-70
2024/01/06 17:13:55;;;;;;;1999.90;999.90;;;;;;;;;;5109724;28;20285;-70
2024/01/06 17:16:41;;;;;;;1999.90;999.90;;;;;;;;;;5110546;28;20211;-71
2024/01/06 17:19:27;;;;;;;1999.90;999.90;;;;;;;;;;5108158;28;20451;-71
2024/01/06 17:22:12;;;;;;;1999.90;999.90;;;;;;;;;;5111433;28;20269;-71
2024/01/06 17:24:57;;;;;;;1999.90;999.90;;;;;;;;;;5110165;28;20286;-70
2024/01/06 17:27:45;;;;;;;1999.90;999.90;;;;;;;;;;5109165;28;20331;-69
2024/01/06 17:30:30;;;;;;;1999.90;999.90;;;;;;;;;;5106674;28;20424;-70
2024/01/06 17:33:16;;;;;;;1999.90;999.90;;;;;;;;;;5111664;28;20594;-70
2024/01/06 17:36:02;;;;;;;1999.90;999.90;;;;;;;;;;5108643;28;20315;-70
2024/01/06 17:38:47;;;;;;;1999.90;999.90;;;;;;;;;;5110261;28;20218;-70
2024/01/06 17:41:32;;;;;;;1999.90;999.90;;;;;;;;;;5109285;28;20246;-71
2024/01/06 17:44:18;;;;;;;1999.90;999.90;;;;;;;;;;5105829;28;20770;-71
2024/01/06 17:47:03;;;;;;;1999.90;999.90;;;;;;;;;;5110014;28;20801;-71
2024/01/06 17:49:50;;;;;;;1999.90;999.90;;;;;;;;;;5108850;28;20603;-70
2024/01/06 17:52:35;;;;;;;1999.90;999.90;;;;;;;;;;5108767;28;20199;-71
2024/01/06 17:55:20;;;;;;;1999.90;999.90;;;;;;;;;;5107232;28;20273;-70
2024/01/06 17:58:05;;;;;;;1999.90;999.90;;;;;;;;;;5108527;28;20923;-70
2024/01/06 18:00:50;;;;;;;1999.90;999.90;;;;;;;;;;5107333;28;20231;-70
2024/01/06 18:03:35;;;;;;;1999.90;999.90;;;;;;;;;;5098805;28;20227;-69
2024/01/06 18:06:22;;;;;;;1999.90;999.90;;;;;;;;;;5100203;28;20305;-70
2024/01/06 18:09:07;;;;;;;1999.90;999.90;;;;;;;;;;5108959;28;20281;-70
2024/01/06 18:11:53;;;;;;;1999.90;999.90;;;;;;;;;;5108769;28;20702;-70